Time;durP1;ratioP1;P1;durP2;ratioP2;P2;SDS_P1;SDS_P2;PMS_P1;PMS_P2;Temp;Humidity;BMP_temperature;BMP_pressure;BME280_temperature;BME280_humidity;BME280_pressure;Samples;Min_cycle;Max_cycle;Signal;HPM_P1;HPM_P2
2021/11/07 00:01:16;;;;;;;21.30;4.65;;;;;;;;;;5018590;28;20073;-71
2021/11/07 00:04:24;;;;;;;21.38;5.35;;;;;;;;;;5038564;28;20111;-71
2021/11/07 00:06:46;;;;;;;14.80;4.30;;;;;;;;;;5033462;28;20041;-71
2021/11/07 00:09:34;;;;;;;18.77;4.30;;;;;;;;;;5036657;28;20076;-71
2021/11/07 00:12:11;;;;;;;18.13;4.37;;;;;;;;;;5035426;28;20128;-71
2021/11/07 00:14:37;;;;;;;20.58;5.28;;;;;;;;;;5037101;28;20541;-71
2021/11/07 00:17:04;;;;;;;14.23;4.00;;;;;;;;;;5039956;28;20141;-71
2021/11/07 00:19:35;;;;;;;16.50;4.68;;;;;;;;;;5044397;28;20131;-71
2021/11/07 00:22:12;;;;;;;21.88;5.03;;;;;;;;;;5038561;28;20084;-71
2021/11/07 00:25:03;;;;;;;19.42;5.15;;;;;;;;;;5040445;28;20081;-71
2021/11/07 00:27:34;;;;;;;17.85;4.45;;;;;;;;;;5039056;28;20496;-72
2021/11/07 00:37:41;;;;;;;15.70;3.97;;;;;;;;;;5039988;28;20081;-71
2021/11/07 00:45:21;;;;;;;17.55;5.10;;;;;;;;;;5036068;28;20053;-72
2021/11/07 00:48:19;;;;;;;15.20;4.20;;;;;;;;;;5036257;28;20127;-72
2021/11/07 00:50:58;;;;;;;14.95;4.60;;;;;;;;;;5039577;28;20497;-71
2021/11/07 00:59:00;;;;;;;15.23;4.85;;;;;;;;;;5038625;28;20091;-71
2021/11/07 01:01:28;;;;;;;9.90;3.50;;;;;;;;;;5041823;28;20175;-72
2021/11/07 01:03:57;;;;;;;9.52;3.65;;;;;;;;;;5036132;28;20096;-72
2021/11/07 01:06:24;;;;;;;12.10;3.65;;;;;;;;;;5037614;28;20053;-71
2021/11/07 01:08:50;;;;;;;13.73;3.85;;;;;;;;;;5032801;28;20124;-71
2021/11/07 01:11:17;;;;;;;10.43;3.10;;;;;;;;;;5034874;28;20148;-71
2021/11/07 01:13:45;;;;;;;8.65;3.13;;;;;;;;;;5046972;28;20156;-72
2021/11/07 01:16:11;;;;;;;10.93;3.30;;;;;;;;;;5037003;28;20049;-71
2021/11/07 01:18:38;;;;;;;11.75;3.15;;;;;;;;;;5034214;28;20108;-71
2021/11/07 01:21:05;;;;;;;10.02;2.80;;;;;;;;;;5040706;28;20085;-71
2021/11/07 01:23:39;;;;;;;14.00;2.92;;;;;;;;;;5036891;28;20128;-71
2021/11/07 01:26:23;;;;;;;9.50;3.20;;;;;;;;;;5041842;28;20127;-71
2021/11/07 01:28:55;;;;;;;10.75;3.05;;;;;;;;;;5040307;28;20509;-70
2021/11/07 01:31:21;;;;;;;10.70;3.10;;;;;;;;;;5038484;28;20073;-70
2021/11/07 01:33:48;;;;;;;13.45;3.42;;;;;;;;;;5038146;28;20049;-70
2021/11/07 01:38:50;;;;;;;10.88;3.50;;;;;;;;;;5039028;28;20140;-70
2021/11/07 01:41:27;;;;;;;16.15;3.95;;;;;;;;;;5037922;28;20140;-70
2021/11/07 01:43:58;;;;;;;16.70;3.40;;;;;;;;;;5038494;28;20140;-70
2021/11/07 01:49:00;;;;;;;20.57;4.43;;;;;;;;;;5035937;28;20123;-70
2021/11/07 01:51:28;;;;;;;19.77;4.80;;;;;;;;;;5035711;28;20380;-70
2021/11/07 01:54:20;;;;;;;25.95;4.88;;;;;;;;;;5037871;28;20069;-71
2021/11/07 01:56:47;;;;;;;28.42;5.05;;;;;;;;;;5030401;28;20053;-72
2021/11/07 01:59:13;;;;;;;21.98;4.65;;;;;;;;;;5035067;28;20081;-71
2021/11/07 02:01:40;;;;;;;24.77;4.25;;;;;;;;;;5032642;28;20041;-71
2021/11/07 02:04:07;;;;;;;15.45;4.55;;;;;;;;;;5037109;28;20156;-72
2021/11/07 02:06:33;;;;;;;18.80;4.20;;;;;;;;;;5039051;28;20089;-71
2021/11/07 02:09:00;;;;;;;23.48;4.45;;;;;;;;;;5033733;28;20127;-71
2021/11/07 02:11:27;;;;;;;24.80;4.25;;;;;;;;;;5036979;28;20168;-71
2021/11/07 02:13:54;;;;;;;16.98;5.15;;;;;;;;;;5037318;28;20072;-71
2021/11/07 02:16:22;;;;;;;28.37;4.27;;;;;;;;;;5032953;28;20584;-71
2021/11/07 02:18:49;;;;;;;21.98;4.55;;;;;;;;;;5037549;28;20481;-71
2021/11/07 02:21:16;;;;;;;31.25;4.90;;;;;;;;;;5039964;28;20073;-71
2021/11/07 02:23:42;;;;;;;21.00;4.20;;;;;;;;;;5038963;28;20128;-71
2021/11/07 02:26:10;;;;;;;17.75;4.35;;;;;;;;;;5038512;28;20056;-70
2021/11/07 02:28:37;;;;;;;26.17;4.90;;;;;;;;;;5036357;28;20132;-70
2021/11/07 02:31:05;;;;;;;31.60;4.82;;;;;;;;;;5042739;28;20172;-70
2021/11/07 02:33:32;;;;;;;22.15;4.63;;;;;;;;;;5036326;28;20107;-70
2021/11/07 02:36:05;;;;;;;18.17;4.27;;;;;;;;;;5038267;28;20084;-71
2021/11/07 02:38:32;;;;;;;20.67;3.92;;;;;;;;;;5043635;28;20472;-71
2021/11/07 02:40:59;;;;;;;15.60;4.18;;;;;;;;;;5040409;28;20099;-71
2021/11/07 02:43:25;;;;;;;15.43;3.65;;;;;;;;;;5041563;28;20483;-71
2021/11/07 02:45:52;;;;;;;10.63;3.50;;;;;;;;;;5038838;28;20612;-71
2021/11/07 02:48:18;;;;;;;18.55;3.80;;;;;;;;;;5047008;28;20080;-71
2021/11/07 02:50:45;;;;;;;12.88;3.03;;;;;;;;;;5040776;28;20069;-72
2021/11/07 02:53:12;;;;;;;12.35;3.00;;;;;;;;;;5044938;28;20140;-72
2021/11/07 02:55:39;;;;;;;14.82;2.88;;;;;;;;;;5037631;28;20085;-71
2021/11/07 02:58:05;;;;;;;7.97;2.42;;;;;;;;;;5041011;28;20085;-71
2021/11/07 03:00:32;;;;;;;7.90;2.72;;;;;;;;;;5037863;28;20131;-71
2021/11/07 03:02:59;;;;;;;10.50;2.40;;;;;;;;;;5038297;28;20513;-71
2021/11/07 03:05:30;;;;;;;11.43;2.50;;;;;;;;;;5019806;28;20462;-71
2021/11/07 03:07:57;;;;;;;6.80;2.25;;;;;;;;;;5040717;28;20053;-71
2021/11/07 03:10:26;;;;;;;8.00;2.47;;;;;;;;;;5041477;28;20133;-71
2021/11/07 03:13:22;;;;;;;15.00;2.95;;;;;;;;;;5039622;28;20375;-71
2021/11/07 03:15:48;;;;;;;19.10;3.35;;;;;;;;;;5024206;28;20140;-71
2021/11/07 03:18:15;;;;;;;19.40;3.92;;;;;;;;;;5043179;28;20089;-71
2021/11/07 03:20:41;;;;;;;29.30;4.32;;;;;;;;;;5041629;28;20495;-70
2021/11/07 03:23:09;;;;;;;29.02;4.68;;;;;;;;;;5040230;28;20103;-70
2021/11/07 03:25:46;;;;;;;20.33;4.00;;;;;;;;;;5041734;28;20077;-70
2021/11/07 03:28:14;;;;;;;47.28;4.90;;;;;;;;;;5041861;28;20378;-71
2021/11/07 03:36:07;;;;;;;59.38;5.30;;;;;;;;;;5040692;28;20464;-71
2021/11/07 03:38:34;;;;;;;48.53;5.38;;;;;;;;;;5026841;28;20079;-71
2021/11/07 03:41:02;;;;;;;61.88;5.88;;;;;;;;;;5040409;28;20081;-71
2021/11/07 03:43:29;;;;;;;;;;;;;;;;;;5040762;28;20088;-71
2021/11/07 03:45:56;;;;;;;46.72;5.15;;;;;;;;;;5037981;28;19964;-71
2021/11/07 03:48:23;;;;;;;41.05;5.18;;;;;;;;;;5025917;28;20081;-71
2021/11/07 03:50:50;;;;;;;47.63;5.57;;;;;;;;;;5041603;28;20080;-71
2021/11/07 03:53:17;;;;;;;53.57;5.97;;;;;;;;;;5038194;28;20128;-70
2021/11/07 03:55:43;;;;;;;50.13;5.80;;;;;;;;;;5043493;28;21101;-70
2021/11/07 03:58:10;;;;;;;58.17;6.20;;;;;;;;;;5040991;28;20084;-70
2021/11/07 04:00:37;;;;;;;51.65;5.63;;;;;;;;;;5040358;28;20592;-70
2021/11/07 04:03:07;;;;;;;;;;;;;;;;;;5047481;28;20409;-70
2021/11/07 04:05:33;;;;;;;;;;;;;;;;;;5040642;28;19925;-70
2021/11/07 04:08:00;;;;;;;65.35;7.22;;;;;;;;;;5040489;28;19964;-70
2021/11/07 04:10:26;;;;;;;55.15;6.50;;;;;;;;;;5038621;28;20050;-70
2021/11/07 04:12:53;;;;;;;77.38;8.18;;;;;;;;;;5040307;28;20136;-70
2021/11/07 04:15:19;;;;;;;73.68;7.85;;;;;;;;;;5039293;28;20081;-70
2021/11/07 04:17:46;;;;;;;73.68;8.18;;;;;;;;;;5042072;28;20129;-70
2021/11/07 04:20:13;;;;;;;66.25;6.80;;;;;;;;;;5043420;28;20095;-70
2021/11/07 04:22:39;;;;;;;59.75;7.13;;;;;;;;;;5022373;28;20119;-70
2021/11/07 04:25:06;;;;;;;69.32;8.70;;;;;;;;;;5041823;28;20069;-70
2021/11/07 04:27:33;;;;;;;71.05;7.43;;;;;;;;;;5039567;28;20076;-70
2021/11/07 04:30:00;;;;;;;81.70;8.43;;;;;;;;;;5042302;28;20065;-71
2021/11/07 04:32:27;;;;;;;;;;;;;;;;;;5039395;28;20136;-71
2021/11/07 04:34:53;;;;;;;74.45;8.20;;;;;;;;;;5038873;28;20458;-71
2021/11/07 04:37:21;;;;;;;72.80;7.40;;;;;;;;;;5043878;28;20157;-71
2021/11/07 04:39:48;;;;;;;83.15;8.60;;;;;;;;;;5042432;28;20053;-71
2021/11/07 04:42:14;;;;;;;76.50;10.18;;;;;;;;;;5040002;28;20139;-70
2021/11/07 04:44:41;;;;;;;77.75;8.98;;;;;;;;;;5040647;28;20124;-71
2021/11/07 04:47:08;;;;;;;70.37;9.50;;;;;;;;;;5041202;28;20576;-70
2021/11/07 04:49:35;;;;;;;77.35;8.68;;;;;;;;;;5043074;28;20103;-71
2021/11/07 04:52:02;;;;;;;81.68;9.60;;;;;;;;;;5038211;28;20072;-71
2021/11/07 04:54:29;;;;;;;79.47;9.45;;;;;;;;;;5039275;28;20091;-70
2021/11/07 04:56:56;;;;;;;68.20;8.52;;;;;;;;;;5044160;28;20067;-70
2021/11/07 04:59:23;;;;;;;70.35;8.20;;;;;;;;;;5035602;28;20129;-70
2021/11/07 05:01:50;;;;;;;97.75;9.40;;;;;;;;;;5037043;28;20469;-70
2021/11/07 05:04:16;;;;;;;84.80;9.43;;;;;;;;;;5037175;28;20505;-70
2021/11/07 05:06:43;;;;;;;61.05;8.60;;;;;;;;;;5037066;28;20084;-70
2021/11/07 05:09:10;;;;;;;87.82;9.50;;;;;;;;;;5038696;28;20091;-70
2021/11/07 05:11:38;;;;;;;71.35;8.73;;;;;;;;;;5038054;28;20145;-70
2021/11/07 05:14:04;;;;;;;75.57;8.02;;;;;;;;;;5039893;28;20412;-70
2021/11/07 05:16:31;;;;;;;71.63;8.07;;;;;;;;;;5044864;28;20136;-70
2021/11/07 05:18:58;;;;;;;78.55;7.80;;;;;;;;;;5037634;28;20616;-70
2021/11/07 05:21:25;;;;;;;93.40;8.60;;;;;;;;;;5041186;28;20107;-70
2021/11/07 05:23:55;;;;;;;77.88;9.68;;;;;;;;;;5030795;28;20497;-70
2021/11/07 05:26:21;;;;;;;79.22;9.38;;;;;;;;;;5032655;28;20468;-70
2021/11/07 05:28:48;;;;;;;75.15;8.65;;;;;;;;;;5033950;28;20087;-70
2021/11/07 05:31:16;;;;;;;78.88;10.48;;;;;;;;;;5037315;28;20087;-70
2021/11/07 05:33:42;;;;;;;87.47;9.85;;;;;;;;;;5036995;28;20087;-70
2021/11/07 05:36:09;;;;;;;79.10;8.30;;;;;;;;;;5035092;28;20137;-70
2021/11/07 05:38:37;;;;;;;77.45;8.50;;;;;;;;;;5035111;28;20136;-70
2021/11/07 05:41:03;;;;;;;91.40;8.82;;;;;;;;;;5039275;28;20135;-70
2021/11/07 05:43:30;;;;;;;61.33;7.27;;;;;;;;;;5032968;28;20137;-71
2021/11/07 05:45:56;;;;;;;73.70;7.22;;;;;;;;;;5038580;28;20576;-70
2021/11/07 05:48:23;;;;;;;71.40;8.55;;;;;;;;;;5037527;28;20100;-70
2021/11/07 05:50:49;;;;;;;70.50;8.20;;;;;;;;;;5032789;28;20068;-70
2021/11/07 05:53:16;;;;;;;80.17;8.00;;;;;;;;;;5038270;28;20073;-70
2021/11/07 05:55:43;;;;;;;62.92;7.95;;;;;;;;;;5040371;28;20127;-70
2021/11/07 05:58:09;;;;;;;80.28;9.38;;;;;;;;;;5042356;28;20448;-71
2021/11/07 06:00:36;;;;;;;57.03;6.30;;;;;;;;;;5037429;28;20128;-70
2021/11/07 06:03:06;;;;;;;78.37;7.93;;;;;;;;;;5038073;28;20141;-70
2021/11/07 06:05:34;;;;;;;62.80;7.95;;;;;;;;;;5030845;28;20041;-70
2021/11/07 06:08:00;;;;;;;79.85;7.10;;;;;;;;;;5037247;28;20532;-70
2021/11/07 06:10:27;;;;;;;74.18;7.28;;;;;;;;;;5034618;28;20068;-70
2021/11/07 06:12:53;;;;;;;68.82;7.85;;;;;;;;;;5035170;28;20057;-70
2021/11/07 06:15:21;;;;;;;83.57;7.88;;;;;;;;;;5035941;28;20045;-70
2021/11/07 06:17:47;;;;;;;65.60;7.00;;;;;;;;;;5044251;28;20131;-70
2021/11/07 06:20:14;;;;;;;60.28;7.28;;;;;;;;;;5035269;28;20136;-70
2021/11/07 06:22:41;;;;;;;68.93;7.00;;;;;;;;;;5033057;28;20049;-70
2021/11/07 06:25:08;;;;;;;65.82;6.78;;;;;;;;;;5032936;28;20072;-70
2021/11/07 06:27:35;;;;;;;56.65;6.50;;;;;;;;;;5033159;28;20083;-71
2021/11/07 06:30:06;;;;;;;51.63;7.00;;;;;;;;;;5031431;28;20050;-70
2021/11/07 06:32:33;;;;;;;73.93;6.80;;;;;;;;;;5031411;28;20037;-70
2021/11/07 06:34:59;;;;;;;78.25;7.75;;;;;;;;;;5031459;28;20069;-70
2021/11/07 06:37:26;;;;;;;67.70;7.35;;;;;;;;;;5042706;28;20126;-69
2021/11/07 06:39:52;;;;;;;64.95;7.00;;;;;;;;;;5036749;28;20152;-69
2021/11/07 06:42:18;;;;;;;74.05;6.30;;;;;;;;;;5036984;28;20127;-70
2021/11/07 06:44:46;;;;;;;53.30;5.43;;;;;;;;;;5035223;28;20188;-70
2021/11/07 06:47:12;;;;;;;95.05;7.68;;;;;;;;;;5035090;28;20121;-70
2021/11/07 06:49:39;;;;;;;77.60;8.20;;;;;;;;;;5033368;28;20178;-70
2021/11/07 06:52:05;;;;;;;65.43;6.60;;;;;;;;;;5036144;28;20044;-70
2021/11/07 06:54:32;;;;;;;66.00;6.40;;;;;;;;;;5036190;28;20136;-69
2021/11/07 06:56:59;;;;;;;71.55;6.60;;;;;;;;;;5033710;28;20561;-70
2021/11/07 06:59:27;;;;;;;94.03;7.60;;;;;;;;;;5032821;28;20072;-70
2021/11/07 07:01:54;;;;;;;84.18;6.15;;;;;;;;;;5034083;28;20492;-70
2021/11/07 07:04:20;;;;;;;66.70;6.85;;;;;;;;;;5031397;28;20140;-70
2021/11/07 07:06:48;;;;;;;54.08;6.22;;;;;;;;;;5032967;28;20128;-70
2021/11/07 07:09:20;;;;;;;62.75;6.80;;;;;;;;;;5031879;28;20069;-69
2021/11/07 07:11:49;;;;;;;65.90;6.95;;;;;;;;;;5031233;28;20069;-70
2021/11/07 07:14:21;;;;;;;79.82;6.78;;;;;;;;;;5037307;28;20049;-70
2021/11/07 07:34:29;;;;;;;61.38;6.53;;;;;;;;;;5037886;28;20133;-70
2021/11/07 07:36:56;;;;;;;56.50;6.07;;;;;;;;;;5044348;28;20055;-70
2021/11/07 07:39:23;;;;;;;63.70;6.25;;;;;;;;;;5042336;28;20080;-70
2021/11/07 07:41:50;;;;;;;66.07;6.80;;;;;;;;;;5043932;28;20045;-70
2021/11/07 07:44:17;;;;;;;61.50;6.10;;;;;;;;;;5039993;28;20053;-70
2021/11/07 07:46:45;;;;;;;67.22;6.63;;;;;;;;;;5040846;28;20068;-70
2021/11/07 07:49:13;;;;;;;58.65;6.25;;;;;;;;;;5040968;28;20152;-71
2021/11/07 07:51:39;;;;;;;59.05;6.50;;;;;;;;;;5035470;28;20079;-70
2021/11/07 07:54:06;;;;;;;58.75;5.72;;;;;;;;;;5037437;28;20140;-70
2021/11/07 07:56:34;;;;;;;61.40;6.15;;;;;;;;;;5035378;28;20060;-70
2021/11/07 07:59:01;;;;;;;58.70;6.23;;;;;;;;;;5035933;28;20140;-70
2021/11/07 08:01:28;;;;;;;69.10;6.10;;;;;;;;;;5038405;28;20466;-70
2021/11/07 08:03:55;;;;;;;73.75;6.95;;;;;;;;;;5034756;28;20053;-70
2021/11/07 08:06:21;;;;;;;80.75;7.00;;;;;;;;;;5017122;28;20406;-70
2021/11/07 08:08:48;;;;;;;66.85;6.22;;;;;;;;;;5034618;28;20077;-70
2021/11/07 08:11:15;;;;;;;73.97;6.25;;;;;;;;;;5033618;28;20072;-70
2021/11/07 08:13:42;;;;;;;70.40;5.68;;;;;;;;;;5034141;28;20160;-70
2021/11/07 08:16:09;;;;;;;59.80;5.75;;;;;;;;;;5035935;28;20560;-70
2021/11/07 08:18:36;;;;;;;81.22;6.82;;;;;;;;;;5035511;28;20806;-70
2021/11/07 08:21:02;;;;;;;66.03;5.97;;;;;;;;;;5033754;28;20049;-70
2021/11/07 08:23:29;;;;;;;58.77;5.80;;;;;;;;;;5037002;28;20080;-70
2021/11/07 08:25:56;;;;;;;80.78;6.63;;;;;;;;;;5036930;28;20171;-70
2021/11/07 08:28:25;;;;;;;52.97;5.68;;;;;;;;;;5035282;28;20110;-70
2021/11/07 08:30:56;;;;;;;72.05;6.50;;;;;;;;;;5034294;28;20080;-70
2021/11/07 08:33:22;;;;;;;65.40;5.70;;;;;;;;;;5034695;28;20144;-70
2021/11/07 08:35:49;;;;;;;55.35;6.25;;;;;;;;;;5034450;28;20145;-70
2021/11/07 08:38:23;;;;;;;;;;;;;;;;;;5033364;28;20616;-70
2021/11/07 08:41:03;;;;;;;62.33;5.45;;;;;;;;;;5035633;28;20165;-70
2021/11/07 09:05:13;;;;;;;51.35;5.60;;;;;;;;;;5035121;28;20140;-70
2021/11/07 09:07:53;;;;;;;28.63;3.83;;;;;;;;;;5041794;28;20076;-70
2021/11/07 09:10:27;;;;;;;48.67;5.45;;;;;;;;;;5037138;28;20055;-70
2021/11/07 09:12:53;;;;;;;48.35;5.10;;;;;;;;;;5036221;28;20046;-70
2021/11/07 09:15:21;;;;;;;42.88;4.88;;;;;;;;;;5037490;28;20140;-70
2021/11/07 09:17:48;;;;;;;46.00;5.40;;;;;;;;;;5034689;28;20136;-71
2021/11/07 09:20:20;;;;;;;43.38;5.35;;;;;;;;;;5017622;28;20794;-71
2021/11/07 09:22:51;;;;;;;35.85;5.47;;;;;;;;;;5033930;28;20124;-72
2021/11/07 09:27:55;;;;;;;51.03;5.65;;;;;;;;;;5034433;28;20076;-70
2021/11/07 09:31:10;;;;;;;53.03;6.27;;;;;;;;;;5035986;28;20821;-70
2021/11/07 09:33:16;;;;;;;43.05;4.28;;;;;;;;;;5027225;28;20328;-70
2021/11/07 09:36:19;;;;;;;37.45;4.57;;;;;;;;;;5034874;28;20088;-70
2021/11/07 09:38:47;;;;;;;40.38;4.40;;;;;;;;;;5029738;28;20080;-70
2021/11/07 09:41:25;;;;;;;;;;;;;;;;;;5034128;28;20064;-70
2021/11/07 09:46:31;;;;;;;30.20;5.03;;;;;;;;;;5034668;28;20045;-70
2021/11/07 09:49:11;;;;;;;;;;;;;;;;;;5033931;28;20854;-71
2021/11/07 09:51:38;;;;;;;33.58;4.47;;;;;;;;;;5036230;28;19972;-70
2021/11/07 09:54:05;;;;;;;28.75;4.07;;;;;;;;;;5032294;28;20131;-70
2021/11/07 09:56:32;;;;;;;31.77;5.00;;;;;;;;;;5033757;28;20120;-71
2021/11/07 09:59:00;;;;;;;33.35;6.20;;;;;;;;;;5034270;28;20143;-71
2021/11/07 10:01:29;;;;;;;34.85;4.82;;;;;;;;;;5036982;28;20080;-70
2021/11/07 10:03:58;;;;;;;32.90;5.55;;;;;;;;;;5035773;28;20045;-71
2021/11/07 10:06:28;;;;;;;24.70;3.60;;;;;;;;;;5033739;28;20507;-71
2021/11/07 10:08:56;;;;;;;30.30;3.97;;;;;;;;;;5032400;28;20064;-71
2021/11/07 10:11:30;;;;;;;20.05;2.90;;;;;;;;;;5034238;28;20127;-71
2021/11/07 10:14:14;;;;;;;26.52;3.53;;;;;;;;;;5033424;28;20139;-71
2021/11/07 10:16:46;;;;;;;21.48;3.05;;;;;;;;;;5034484;28;20528;-71
2021/11/07 10:19:37;;;;;;;22.00;3.50;;;;;;;;;;5038825;28;20156;-71
2021/11/07 10:22:05;;;;;;;21.55;3.15;;;;;;;;;;5036283;28;20494;-71
2021/11/07 10:24:38;;;;;;;15.90;2.75;;;;;;;;;;5037247;28;20080;-72
2021/11/07 10:27:12;;;;;;;26.90;2.80;;;;;;;;;;5036198;28;20132;-71
2021/11/07 10:29:47;;;;;;;22.48;3.60;;;;;;;;;;5032050;28;20140;-71
2021/11/07 10:32:23;;;;;;;21.85;3.25;;;;;;;;;;5034315;28;20077;-71
2021/11/07 10:40:30;;;;;;;24.88;3.78;;;;;;;;;;4984696;28;20141;-71
2021/11/07 10:46:17;;;;;;;28.65;3.78;;;;;;;;;;5011414;28;20084;-72
2021/11/07 10:53:39;;;;;;;28.42;3.22;;;;;;;;;;5031573;28;20501;-72
2021/11/07 10:56:07;;;;;;;16.25;4.53;;;;;;;;;;5037621;28;20413;-71
2021/11/07 10:58:33;;;;;;;;;;;;;;;;;;5033435;28;20080;-71
2021/11/07 11:01:01;;;;;;;23.38;3.40;;;;;;;;;;5043591;28;19983;-72
2021/11/07 11:03:27;;;;;;;16.90;3.47;;;;;;;;;;5037600;28;20049;-71
2021/11/07 11:06:07;;;;;;;24.92;3.53;;;;;;;;;;5041110;28;20132;-71
2021/11/07 11:08:39;;;;;;;26.42;5.20;;;;;;;;;;5019961;28;20045;-71
2021/11/07 11:14:11;;;;;;;30.88;5.15;;;;;;;;;;5039844;28;20060;-71
2021/11/07 11:24:38;;;;;;;16.00;2.47;;;;;;;;;;5034713;28;20051;-71
2021/11/07 11:27:14;;;;;;;17.17;2.95;;;;;;;;;;5036933;28;20128;-70
2021/11/07 11:30:28;;;;;;;15.82;3.65;;;;;;;;;;5040592;28;20103;-70
2021/11/07 11:40:08;;;;;;;13.25;2.90;;;;;;;;;;5040535;28;20059;-70
2021/11/07 11:42:49;;;;;;;19.55;3.50;;;;;;;;;;5040299;28;21006;-70
2021/11/07 11:45:23;;;;;;;17.40;3.22;;;;;;;;;;5034901;28;20049;-70
2021/11/07 11:48:03;;;;;;;28.30;5.13;;;;;;;;;;5040156;28;20037;-70
2021/11/07 11:50:52;;;;;;;17.38;2.83;;;;;;;;;;5041729;28;20139;-70
2021/11/07 11:56:21;;;;;;;11.23;2.53;;;;;;;;;;5037679;28;20069;-70
2021/11/07 11:59:01;;;;;;;13.55;2.40;;;;;;;;;;5039539;28;20136;-70
2021/11/07 12:01:51;;;;;;;4.68;1.58;;;;;;;;;;5042176;28;20125;-70
2021/11/07 12:04:38;;;;;;;8.57;2.00;;;;;;;;;;5034868;28;20136;-70
2021/11/07 12:07:21;;;;;;;8.77;1.55;;;;;;;;;;5037443;28;20077;-70
2021/11/07 12:09:56;;;;;;;14.35;2.35;;;;;;;;;;5042722;28;20470;-70
2021/11/07 12:12:49;;;;;;;7.28;1.80;;;;;;;;;;5042701;28;20077;-70
2021/11/07 12:15:27;;;;;;;7.55;1.73;;;;;;;;;;5040343;28;20159;-71
2021/11/07 12:18:04;;;;;;;5.07;1.23;;;;;;;;;;5038194;28;20073;-70
2021/11/07 12:20:37;;;;;;;8.85;1.80;;;;;;;;;;5047097;28;20132;-70
2021/11/07 12:23:17;;;;;;;8.82;1.60;;;;;;;;;;5042927;28;20079;-70
2021/11/07 12:25:45;;;;;;;6.32;1.73;;;;;;;;;;5035896;28;20057;-70
2021/11/07 12:28:13;;;;;;;6.22;1.35;;;;;;;;;;5038911;28;20544;-70
2021/11/07 12:30:40;;;;;;;6.55;1.90;;;;;;;;;;5040005;28;20132;-70
2021/11/07 12:33:10;;;;;;;5.55;1.35;;;;;;;;;;5044231;28;20135;-70
2021/11/07 12:35:54;;;;;;;7.13;1.85;;;;;;;;;;5038203;28;20131;-70
2021/11/07 12:41:12;;;;;;;4.20;1.20;;;;;;;;;;5038799;28;20060;-70
2021/11/07 12:43:39;;;;;;;4.72;1.45;;;;;;;;;;5038140;28;20080;-70
2021/11/07 12:48:54;;;;;;;3.55;1.35;;;;;;;;;;5038362;28;20555;-70
2021/11/07 12:51:41;;;;;;;4.80;1.40;;;;;;;;;;5037623;28;20128;-70
2021/11/07 12:54:13;;;;;;;6.82;1.52;;;;;;;;;;5034972;28;20128;-70
2021/11/07 12:56:45;;;;;;;7.15;1.50;;;;;;;;;;5038328;28;20060;-70
2021/11/07 12:59:18;;;;;;;4.95;1.52;;;;;;;;;;5039170;28;20056;-70
2021/11/07 13:02:05;;;;;;;6.28;1.20;;;;;;;;;;5038379;28;20144;-70
2021/11/07 13:04:47;;;;;;;4.20;0.85;;;;;;;;;;5038440;28;20171;-70
2021/11/07 13:07:22;;;;;;;4.97;1.05;;;;;;;;;;5039017;28;20581;-70
2021/11/07 13:10:00;;;;;;;3.08;0.93;;;;;;;;;;5035492;28;20081;-70
2021/11/07 13:12:40;;;;;;;4.22;0.98;;;;;;;;;;5036399;28;20072;-70
2021/11/07 13:28:31;;;;;;;2.08;0.80;;;;;;;;;;5037733;28;20133;-70
2021/11/07 13:31:04;;;;;;;3.90;0.80;;;;;;;;;;5034793;28;20042;-70
2021/11/07 13:33:31;;;;;;;1.45;0.70;;;;;;;;;;5034804;28;20076;-70
2021/11/07 13:36:00;;;;;;;3.13;0.93;;;;;;;;;;5041220;28;20087;-70
2021/11/07 13:38:29;;;;;;;1.20;0.70;;;;;;;;;;5039740;28;20135;-70
2021/11/07 13:40:55;;;;;;;4.70;0.90;;;;;;;;;;5038427;28;20492;-70
2021/11/07 13:43:28;;;;;;;2.73;0.97;;;;;;;;;;5034342;28;20078;-70
2021/11/07 13:45:56;;;;;;;2.08;0.93;;;;;;;;;;5036340;28;20080;-70
2021/11/07 13:48:30;;;;;;;1.98;0.70;;;;;;;;;;5040172;28;20099;-70
2021/11/07 13:50:58;;;;;;;3.15;0.77;;;;;;;;;;5035065;28;20121;-70
2021/11/07 13:53:33;;;;;;;2.72;0.85;;;;;;;;;;5033907;28;20053;-70
2021/11/07 13:56:02;;;;;;;1.88;0.80;;;;;;;;;;5035784;28;20486;-70
2021/11/07 13:58:29;;;;;;;2.45;0.73;;;;;;;;;;5036987;28;20148;-70
2021/11/07 14:00:58;;;;;;;4.35;0.80;;;;;;;;;;5036283;28;20466;-69
2021/11/07 14:03:24;;;;;;;1.02;0.70;;;;;;;;;;5036437;28;20136;-70
2021/11/07 14:05:58;;;;;;;2.45;1.10;;;;;;;;;;5037287;28;20535;-70
2021/11/07 14:08:25;;;;;;;2.95;1.17;;;;;;;;;;5036143;28;20049;-70
2021/11/07 14:10:52;;;;;;;;;;;;;;;;;;5018813;28;20099;-70
2021/11/07 14:13:19;;;;;;;1.58;0.77;;;;;;;;;;5038156;28;20392;-70
2021/11/07 14:15:52;;;;;;;4.03;0.80;;;;;;;;;;5034640;28;20045;-70
2021/11/07 14:18:29;;;;;;;5.28;1.23;;;;;;;;;;5039045;28;20330;-70
2021/11/07 14:21:05;;;;;;;4.28;1.05;;;;;;;;;;5040654;28;20049;-69
2021/11/07 14:23:41;;;;;;;1.73;1.05;;;;;;;;;;5019865;28;20080;-70
2021/11/07 14:26:25;;;;;;;3.10;1.33;;;;;;;;;;5034566;28;20076;-70
2021/11/07 14:28:57;;;;;;;3.60;1.45;;;;;;;;;;5032354;28;20145;-70
2021/11/07 14:31:35;;;;;;;1.48;0.93;;;;;;;;;;5034850;28;20080;-69
2021/11/07 14:34:10;;;;;;;1.95;0.90;;;;;;;;;;5038824;28;20618;-70
2021/11/07 14:36:44;;;;;;;0.73;0.50;;;;;;;;;;5041294;28;20128;-70
2021/11/07 14:42:07;;;;;;;2.83;0.43;;;;;;;;;;5040978;28;20049;-70
2021/11/07 14:44:40;;;;;;;0.88;0.65;;;;;;;;;;5045264;28;20076;-70
2021/11/07 14:47:09;;;;;;;1.05;0.52;;;;;;;;;;5045425;28;20088;-70
2021/11/07 14:52:35;;;;;;;0.68;0.50;;;;;;;;;;5040641;28;20132;-70
2021/11/07 14:55:06;;;;;;;0.55;0.55;;;;;;;;;;5040737;28;20095;-70
2021/11/07 15:00:26;;;;;;;4.25;0.88;;;;;;;;;;5040997;28;20123;-70
2021/11/07 15:02:58;;;;;;;0.75;0.68;;;;;;;;;;5035213;28;20387;-70
2021/11/07 15:05:34;;;;;;;3.38;1.30;;;;;;;;;;5037325;28;20049;-71
2021/11/07 15:08:13;;;;;;;0.95;0.75;;;;;;;;;;5043544;28;20084;-71
2021/11/07 15:10:54;;;;;;;1.33;0.85;;;;;;;;;;5040808;28;20141;-70
2021/11/07 15:16:12;;;;;;;1.88;0.85;;;;;;;;;;5039286;28;20131;-70
2021/11/07 15:21:35;;;;;;;0.45;0.45;;;;;;;;;;5040700;28;20143;-70
2021/11/07 15:24:02;;;;;;;1.27;0.95;;;;;;;;;;5041643;28;20053;-70
2021/11/07 15:26:33;;;;;;;3.00;1.15;;;;;;;;;;5038246;28;20077;-70
2021/11/07 15:29:08;;;;;;;1.63;0.50;;;;;;;;;;5034074;28;20628;-70
2021/11/07 15:31:36;;;;;;;0.40;0.40;;;;;;;;;;5036488;28;20132;-70
2021/11/07 15:34:04;;;;;;;0.75;0.30;;;;;;;;;;5037726;28;20792;-70
2021/11/07 15:36:37;;;;;;;2.97;0.50;;;;;;;;;;5034141;28;20103;-70
2021/11/07 15:39:05;;;;;;;0.50;0.40;;;;;;;;;;5047042;28;20099;-71
2021/11/07 15:41:32;;;;;;;0.55;0.40;;;;;;;;;;5036363;28;20061;-70
2021/11/07 15:44:03;;;;;;;0.35;0.30;;;;;;;;;;5035671;28;20092;-70
2021/11/07 15:46:30;;;;;;;0.43;0.40;;;;;;;;;;5041919;28;20092;-70
2021/11/07 15:48:57;;;;;;;1.08;0.40;;;;;;;;;;5041529;28;20493;-70
2021/11/07 15:51:41;;;;;;;2.88;0.30;;;;;;;;;;5041412;28;20127;-70
2021/11/07 15:54:22;;;;;;;2.38;0.50;;;;;;;;;;5034857;28;20140;-70
2021/11/07 15:59:35;;;;;;;1.55;0.40;;;;;;;;;;5043934;28;20041;-70
2021/11/07 16:02:12;;;;;;;1.27;0.65;;;;;;;;;;5040341;28;20081;-70
2021/11/07 16:04:51;;;;;;;2.67;0.60;;;;;;;;;;5035127;28;20072;-70
2021/11/07 16:07:26;;;;;;;;;;;;;;;;;;5037086;28;20076;-69
2021/11/07 16:12:39;;;;;;;0.65;0.50;;;;;;;;;;5040145;28;20073;-70
2021/11/07 16:15:24;;;;;;;1.52;0.20;;;;;;;;;;5035965;28;20136;-70
2021/11/07 16:17:53;;;;;;;0.50;0.50;;;;;;;;;;5037703;28;20076;-69
2021/11/07 16:20:21;;;;;;;4.85;1.05;;;;;;;;;;5038857;28;20140;-70
2021/11/07 16:22:51;;;;;;;0.85;0.47;;;;;;;;;;5040359;28;20077;-70
2021/11/07 16:25:20;;;;;;;0.75;0.47;;;;;;;;;;5034265;28;20131;-70
2021/11/07 16:27:47;;;;;;;0.80;0.60;;;;;;;;;;5045793;28;20042;-70
2021/11/07 16:30:16;;;;;;;0.40;0.40;;;;;;;;;;5039671;28;20077;-70
2021/11/07 16:33:11;;;;;;;0.30;0.30;;;;;;;;;;5034815;28;20136;-69
2021/11/07 16:38:19;;;;;;;0.70;0.52;;;;;;;;;;5038125;28;20077;-69
2021/11/07 16:40:59;;;;;;;0.32;0.32;;;;;;;;;;5033919;28;20156;-69
2021/11/07 16:43:28;;;;;;;2.78;0.65;;;;;;;;;;5037559;28;20065;-70
2021/11/07 16:46:01;;;;;;;0.17;0.17;;;;;;;;;;5037787;28;20079;-70
2021/11/07 16:48:28;;;;;;;0.30;0.30;;;;;;;;;;5036563;28;20145;-69
2021/11/07 16:51:02;;;;;;;4.70;0.60;;;;;;;;;;5039176;28;20136;-70
2021/11/07 16:53:33;;;;;;;0.82;0.30;;;;;;;;;;5046477;28;20049;-69
2021/11/07 16:56:04;;;;;;;0.20;0.20;;;;;;;;;;5039150;28;20136;-69
2021/11/07 17:01:37;;;;;;;0.25;0.25;;;;;;;;;;5036551;28;20080;-70
2021/11/07 17:04:09;;;;;;;0.20;0.20;;;;;;;;;;5033352;28;20049;-69
2021/11/07 17:06:41;;;;;;;0.32;0.32;;;;;;;;;;5042021;28;20128;-69
2021/11/07 17:09:15;;;;;;;0.85;0.35;;;;;;;;;;5035185;28;20077;-69
2021/11/07 17:11:43;;;;;;;0.30;0.30;;;;;;;;;;5036156;28;20128;-69
2021/11/07 17:14:12;;;;;;;;;;;;;;;;;;5038619;28;20072;-69
2021/11/07 17:16:53;;;;;;;0.17;0.17;;;;;;;;;;5035244;28;20023;-69
2021/11/07 17:19:29;;;;;;;0.20;0.20;;;;;;;;;;5038595;28;20044;-69
2021/11/07 17:22:09;;;;;;;0.40;0.30;;;;;;;;;;5039182;28;20050;-69
2021/11/07 17:24:57;;;;;;;0.40;0.40;;;;;;;;;;5037943;28;20044;-69
2021/11/07 17:27:30;;;;;;;1.88;0.30;;;;;;;;;;5032908;28;20068;-69
2021/11/07 17:30:06;;;;;;;0.65;0.35;;;;;;;;;;5040780;28;20053;-69
2021/11/07 17:32:38;;;;;;;0.32;0.30;;;;;;;;;;5034603;28;20095;-69